Latest Weather Observations for Coonabarabran Airport

IDN60801

Issued at 9:33 am EDT Monday 2 February 2015 (issued every 30 minutes, with the page automatically refreshed every 10 minutes)

About weather observations | Map of weather stations | Latest weather observations for NSW | Other Formats
Station Details ID: 064017 Name: COONABARABRAN AIRPORT AWS Lat: -31.33 Lon: 149.27 Height: 645.0 m
Data from the previous 72 hours. | See also: Recent months for locations in New South Wales
Date/Time
EDT
Temp
°C
App
Temp
°C
Dew
Point
Rel
Hum
%
Delta-T
°C
Wind Press
QNH
hPa
Press
MSL
hPa
Rain
since 9 am
mm
Dir
 
Spd
km/h
Gust
km/h
Spd
kts
Gust
kts
02/09:30am 20.5 18.1 14.4 68 3.7 ESE 20 30 11 16 1013.9 1010.1 0.0
02/09:00am 20.4 19.8 14.7 70 3.4 SE 11 20 6 11 1013.7 1009.9 0.0
02/08:30am 17.9 17.2 15.3 85 1.6 S 13 20 7 11 1013.4 1009.6 0.0
02/08:00am 16.7 16.0 15.4 92 0.8 SSW 13 15 7 8 1013.0 1009.2 0.0
02/07:30am 16.0 15.8 15.7 98 0.2 SSW 11 13 6 7 1012.4 1008.6 0.0
02/07:00am 14.9 14.4 14.9 100 0.0 SSW 11 13 6 7 1012.0 1008.2 0.0
02/06:30am 14.3 13.6 14.3 100 0.0 SSW 11 13 6 7 1011.6 1007.8 0.0
02/06:00am 14.4 13.7 14.4 100 0.0 SSW 11 13 6 7 1011.3 1007.4 0.0
02/05:30am 14.7 14.1 14.7 100 0.0 S 11 17 6 9 1011.0 1007.1 0.0
02/05:00am 15.0 14.5 15.0 100 0.0 S 11 17 6 9 1010.6 1006.8 0.0
02/04:30am 14.9 13.9 14.7 99 0.1 S 13 17 7 9 1010.5 1006.7 0.0
02/04:00am 14.8 13.7 14.3 97 0.3 SSW 13 15 7 8 1010.4 1006.6 0.0
02/03:00am 15.3 14.3 14.5 95 0.5 S 13 17 7 9 1010.4 1006.6 0.0
02/02:30am 15.7 14.2 14.2 91 0.9 S 15 19 8 10 1010.4 1006.6 0.0
02/02:00am 16.6 14.8 14.4 87 1.3 S 17 20 9 11 1010.4 1006.6 0.0
02/01:30am 17.0 15.5 13.1 78 2.3 S 13 19 7 10 1010.5 1006.7 0.0
02/01:00am 17.6 15.4 10.9 65 3.7 S 13 15 7 8 1010.7 1006.9 0.0
02/12:30am 18.5 15.5 7.9 50 5.6 S 13 15 7 8 1010.7 1006.9 0.0
02/12:00am 19.9 16.3 5.2 38 7.5 SSW 13 17 7 9 1010.6 1006.8 0.0
 
Date/Time
EDT
Temp
°C
App
Temp
°C
Dew
Point
Rel
Hum
%
Delta-T
°C
Wind Press
QNH
hPa
Press
MSL
hPa
Rain
since 9 am
mm
Dir
 
Spd
km/h
Gust
km/h
Spd
kts
Gust
kts
01/11:30pm 22.1 19.8 5.5 34 8.6 S 7 15 4 8 1010.6 1006.8 0.0
01/11:00pm 22.0 19.8 5.4 34 8.6 SSE 6 13 3 7 1010.7 1006.9 0.0
01/10:30pm 22.0 19.5 5.0 33 8.7 SSW 7 13 4 7 1010.6 1006.8 0.0
01/10:00pm 22.1 19.2 4.6 32 8.9 SSW 9 13 5 7 1010.4 1006.6 0.0
01/09:00pm 23.1 20.4 3.6 28 9.8 SSW 7 15 4 8 1010.1 1006.3 0.0
01/08:30pm 23.0 19.9 3.5 28 9.8 SW 9 11 5 6 1009.8 1005.9 0.0
01/08:00pm 23.8 20.3 3.7 27 10.2 SW 11 15 6 8 1009.6 1005.7 0.0
01/07:30pm 25.8 21.7 4.3 25 11.1 SW 15 20 8 11 1009.3 1005.4 0.0
01/07:00pm 26.8 22.5 3.3 22 12.0 SSW 15 20 8 11 1008.8 1005.0 0.0
01/06:30pm 27.6 23.4 4.0 22 12.3 SSW 15 19 8 10 1008.6 1004.8 0.0
01/05:30pm 28.4 24.3 4.6 22 12.6 WSW 15 26 8 14 1008.4 1004.5 0.0
01/05:00pm 27.5 24.6 4.5 23 12.1 S 9 20 5 11 1008.4 1004.5 0.0
01/04:30pm 26.8 23.2 6.8 28 10.9 S 15 22 8 12 1008.6 1004.8 0.0
01/04:00pm 26.5 24.9 4.3 24 11.5 W 2 9 1 5 1008.7 1004.9 0.0
01/03:30pm 27.5 23.9 5.1 24 11.9 SW 13 20 7 11 1009.0 1005.2 0.0
01/03:00pm 26.7 23.5 5.1 25 11.4 S 11 22 6 12 1009.3 1005.4 0.0
01/02:30pm 26.6 22.1 6.1 27 11.0 S 19 24 10 13 1009.5 1005.6 0.0
01/02:00pm 25.3 23.1 6.0 29 10.3 SSW 7 13 4 7 1009.8 1005.9 0.0
01/01:30pm 26.4 22.2 7.4 30 10.4 SSE 19 28 10 15 1010.0 1006.2 0.0
01/01:00pm 25.8 22.6 6.9 30 10.2 SW 13 20 7 11 1010.3 1006.5 0.0
01/12:30pm 25.6 22.4 8.6 34 9.5 S 15 24 8 13 1010.5 1006.7 0.0
01/12:00pm 25.3 23.1 7.9 33 9.6 SSE 9 17 5 9 1011.0 1007.1 0.0
01/11:30am 24.6 22.3 7.3 33 9.4 SW 9 19 5 10 1011.3 1007.4 0.0
01/11:00am 23.9 21.2 7.5 35 8.9 SSW 11 19 6 10 1011.3 1007.4 0.0
01/10:30am 23.5 21.1 7.2 35 8.7 SSE 9 19 5 10 1011.3 1007.2 0.0
01/10:00am 22.4 20.1 7.4 38 8.0 S 9 13 5 7 1011.4 1007.3 0.0
01/09:30am 21.3 19.3 8.6 44 6.9 SSW 9 13 5 7 1011.3 1007.2 0.0
01/09:00am 20.8 18.6 7.8 43 7.0 S 9 13 5 7 1011.1 1007.0 0.0
01/08:30am 20.3 17.7 6.3 40 7.3 SSW 9 11 5 6 1010.7 1006.7 0.0
01/08:00am 20.1 17.6 6.4 41 7.1 SW 9 15 5 8 1010.6 1006.6 0.0
01/07:30am 18.5 15.6 6.7 46 6.1 WSW 11 13 6 7 1010.2 1006.1 0.0
01/07:00am 17.6 15.0 5.9 46 5.9 WSW 9 11 5 6 1010.0 1005.9 0.0
01/06:30am 16.6 13.9 5.6 48 5.5 WSW 9 13 5 7 1009.7 1005.6 0.0
01/06:00am 16.7 14.0 5.6 48 5.6 WSW 9 13 5 7 1009.5 1005.4 0.0
01/05:30am 16.9 14.2 5.5 47 5.7 SW 9 13 5 7 1009.3 1005.2 0.0
01/05:00am 17.5 14.8 5.4 45 6.1 WSW 9 13 5 7 1009.3 1005.2 0.0
01/04:30am 17.5 14.8 5.8 46 5.9 WSW 9 11 5 6 1009.3 1005.2 0.0
01/04:00am 17.1 14.7 5.1 45 6.0 SW 7 15 4 8 1009.1 1005.1 0.0
01/03:30am 17.8 15.1 5.4 44 6.2 SW 9 15 5 8 1009.5 1005.4 0.0
01/03:00am 18.0 15.3 5.6 44 6.3 SW 9 13 5 7 1009.6 1005.5 0.0
01/02:30am 17.6 14.9 5.5 45 6.1 SW 9 13 5 7 1010.0 1005.9 0.0
01/02:00am 17.7 15.3 5.3 44 6.2 SSW 7 13 4 7 1010.0 1005.9 0.0
01/01:30am 17.8 14.4 5.7 45 6.1 SSW 13 17 7 9 1010.0 1005.9 0.0
01/01:00am 18.3 14.9 5.8 44 6.3 SW 13 17 7 9 1010.2 1006.1 0.0
01/12:30am 18.5 15.1 5.7 43 6.5 SW 13 15 7 8 1010.3 1006.2 0.0
01/12:00am 18.8 15.7 5.6 42 6.7 WSW 11 17 6 9 1010.9 1006.8 0.0
 
Date/Time
EDT
Temp
°C
App
Temp
°C
Dew
Point
Rel
Hum
%
Delta-T
°C
Wind Press
QNH
hPa
Press
MSL
hPa
Rain
since 9 am
mm
Dir
 
Spd
km/h
Gust
km/h
Spd
kts
Gust
kts
31/11:30pm 18.5 15.6 4.7 40 6.9 WSW 9 13 5 7 1010.9 1006.8 0.0
31/11:00pm 18.8 15.8 4.2 38 7.2 WSW 9 17 5 9 1010.9 1006.8 0.0
31/10:30pm 19.2 16.1 3.8 36 7.5 SW 9 13 5 7 1010.9 1006.8 0.0
31/10:00pm 19.8 16.6 3.1 33 8.1 SSW 9 15 5 8 1010.5 1006.5 0.0
31/09:30pm 19.9 16.3 3.2 33 8.1 WSW 11 15 6 8 1010.4 1006.4 0.0
31/09:00pm 20.3 16.8 3.5 33 8.3 WSW 11 13 6 7 1010.2 1006.1 0.0
31/08:30pm 21.0 17.8 3.2 31 8.7 W 9 11 5 6 1009.8 1005.7 0.0
31/08:00pm 22.4 18.3 2.5 27 9.8 WSW 13 20 7 11 1009.5 1005.4 0.0
31/07:30pm 23.5 19.5 2.9 26 10.2 SW 13 20 7 11 1009.0 1005.0 0.0
31/07:00pm 24.2 19.5 2.9 25 10.6 SSW 17 24 9 13 1008.8 1004.7 0.0
31/06:30pm 24.9 20.2 3.0 24 11.0 SW 17 24 9 13 1008.5 1004.4 0.0
31/06:00pm 25.0 19.6 2.4 23 11.3 SW 20 26 11 14 1008.4 1004.3 0.0
31/05:30pm 25.0 19.7 3.0 24 11.0 SW 20 32 11 17 1008.4 1004.3 0.0
31/05:00pm 24.9 18.9 3.5 25 10.9 SW 24 33 13 18 1008.6 1004.5 0.0
31/04:30pm 25.0 18.9 3.0 24 11.0 SW 24 33 13 18 1008.7 1004.6 0.0
31/04:00pm 25.2 19.6 3.2 24 11.1 SW 22 35 12 19 1008.8 1004.7 0.0
31/03:30pm 24.9 19.5 2.4 23 11.2 WSW 20 30 11 16 1008.8 1004.7 0.0
31/03:00pm 25.0 20.0 3.6 25 10.9 SW 19 33 10 18 1008.9 1004.8 0.0
31/02:30pm 25.1 19.4 3.1 24 11.1 SW 22 35 12 19 1009.1 1005.1 0.0
31/02:00pm 23.8 19.4 2.6 25 10.5 WSW 15 24 8 13 1009.4 1005.3 0.0
31/01:30pm 24.1 20.0 2.3 24 10.7 W 13 22 7 12 1009.5 1005.4 0.0
31/01:00pm 23.6 18.7 1.9 24 10.6 WSW 17 28 9 15 1009.8 1005.7 0.0
31/12:30pm 23.4 18.5 1.7 24 10.5 WSW 17 26 9 14 1010.1 1006.0 0.0
31/12:00pm 23.1 18.2 2.0 25 10.3 WNW 17 24 9 13 1010.2 1006.1 0.0
31/11:30am 22.4 17.9 2.0 26 9.9 SSW 15 24 8 13 1010.4 1006.4 0.0
31/11:00am 22.8 17.7 2.8 27 9.9 SSW 19 24 10 13 1010.5 1006.5 0.0
31/10:30am 21.6 17.1 2.3 28 9.3 WSW 15 28 8 15 1010.6 1006.6 0.0
31/10:00am 21.2 17.2 3.0 30 8.9 SW 13 20 7 11 1010.7 1006.7 0.0
31/09:30am 20.5 17.4 3.7 33 8.3 S 9 13 5 7 1010.7 1006.7 0.0
31/09:00am 19.7 16.6 3.8 35 7.8 S 9 13 5 7 1010.6 1006.6 0.0
31/08:30am 18.9 16.2 3.9 37 7.4 SSW 7 15 4 8 1010.5 1006.5 0.0
31/08:00am 18.1 14.9 3.2 37 7.2 WSW 9 15 5 8 1010.3 1006.2 0.0
31/07:30am 16.8 14.2 4.2 43 6.1 WSW 7 15 4 8 1010.1 1006.0 0.0
31/07:00am 15.1 11.8 2.6 43 5.8 W 9 15 5 8 1009.7 1005.6 0.0
31/06:30am 14.8 11.8 1.7 41 5.9 WSW 7 17 4 9 1009.3 1005.2 0.0
31/06:00am 14.1 10.7 2.0 44 5.5 W 9 11 5 6 1008.9 1004.8 0.0
31/05:30am 15.0 11.6 1.9 41 6.0 WSW 9 11 5 6 1008.8 1004.7 0.0
31/05:00am 14.9 11.5 1.8 41 6.0 WSW 9 11 5 6 1008.7 1004.6 0.0
31/04:30am 15.0 11.9 1.2 39 6.2 SW 7 15 4 8 1008.7 1004.6 0.0
31/04:00am 15.2 11.7 1.4 39 6.3 SSW 9 13 5 7 1008.6 1004.5 0.0
31/03:30am 15.3 11.8 1.4 39 6.3 SSW 9 11 5 6 1008.7 1004.6 0.0
31/03:00am 15.3 11.8 1.4 39 6.3 S 9 15 5 8 1008.7 1004.6 0.0
31/02:30am 15.7 12.3 1.8 39 6.4 S 9 13 5 7 1008.8 1004.7 0.0
31/02:00am 15.8 12.0 1.5 38 6.5 SSE 11 17 6 9 1009.0 1005.0 0.0
31/01:30am 17.1 12.6 1.9 36 7.1 S 15 26 8 14 1009.3 1005.2 0.0
31/01:00am 16.4 12.3 2.4 39 6.5 SSW 13 17 7 9 1009.5 1005.4 0.0
31/12:30am 16.9 13.2 2.1 37 6.9 SSW 11 15 6 8 1009.8 1005.7 0.0
31/12:00am 17.1 13.7 1.9 36 7.1 SSW 9 15 5 8 1009.8 1005.7 0.0
 
Date/Time
EDT
Temp
°C
App
Temp
°C
Dew
Point
Rel
Hum
%
Delta-T
°C
Wind Press
QNH
hPa
Press
MSL
hPa
Rain
since 9 am
mm
Dir
 
Spd
km/h
Gust
km/h
Spd
kts
Gust
kts
30/11:30pm 17.4 14.1 2.6 37 7.0 SSW 9 13 5 7 1009.9 1005.8 0.0
30/11:00pm 18.1 14.0 2.4 35 7.4 SSW 13 17 7 9 1009.8 1005.7 0.0
30/10:30pm 18.7 14.6 2.5 34 7.7 SSW 13 20 7 11 1009.9 1005.8 0.0
30/10:00pm 18.9 15.3 3.1 35 7.6 SSW 11 17 6 9 1009.9 1005.8 0.0
30/09:30pm 19.1 16.0 3.7 36 7.5 SSW 9 13 5 7 1009.8 1005.7 0.0
30/09:00pm 19.9 16.4 3.6 34 8.0 SSW 11 15 6 8 1009.6 1005.5 0.0
30/08:30pm 20.5 16.6 3.3 32 8.4 SW 13 17 7 9 1009.1 1005.1 0.0
30/08:00pm 21.6 17.6 2.8 29 9.2 SW 13 17 7 9 1008.9 1004.8 0.0
30/07:30pm 23.3 18.4 2.2 25 10.3 SW 17 24 9 13 1008.5 1004.4 0.0
30/07:00pm 24.1 18.7 2.3 24 10.8 SW 20 32 11 17 1008.2 1004.1 0.0
30/06:30pm 24.8 20.1 2.9 24 11.0 SW 17 26 9 14 1008.0 1003.9 0.0
30/06:00pm 25.2 20.0 3.8 25 10.9 SW 20 33 11 18 1008.0 1003.9 0.0
30/05:30pm 25.4 19.8 3.4 24 11.2 WSW 22 30 12 16 1008.0 1003.9 0.0
30/05:00pm 25.6 20.7 4.1 25 11.1 WSW 19 30 10 16 1008.2 1004.1 0.0
30/04:30pm 25.9 21.4 6.0 28 10.6 SW 19 30 10 16 1008.3 1004.2 0.0
30/04:00pm 25.4 19.2 4.5 26 10.8 SW 26 41 14 22 1008.6 1004.5 0.0
30/03:32pm 25.2 18.6 4.3 26 10.8 WSW 28 46 15 25 1008.8 1004.7 0.0
30/03:30pm 25.1 18.9 4.3 26 10.7 WSW 26 46 14 25 1008.9 1004.8 0.0
30/03:00pm 25.2 19.6 5.4 28 10.4 SW 24 35 13 19 1009.1 1005.1 0.0
30/02:30pm 24.5 18.7 4.3 27 10.4 WSW 24 43 13 23 1009.6 1005.5 0.0
30/02:00pm 24.5 19.3 5.3 29 10.0 SW 22 41 12 22 1009.9 1005.8 0.0
30/01:30pm 24.1 17.9 4.5 28 10.1 SW 26 35 14 19 1010.3 1006.2 0.0
30/01:00pm 24.0 18.8 5.4 30 9.7 SW 22 33 12 18 1010.6 1006.6 0.0
30/12:30pm 23.3 17.5 4.3 29 9.7 WSW 24 41 13 22 1011.0 1006.9 0.0
30/12:00pm 23.0 17.2 4.5 30 9.4 SW 24 33 13 18 1011.2 1007.1 0.0
30/11:30am 22.7 17.1 5.2 32 9.0 SW 24 35 13 19 1011.4 1007.3 0.0
30/11:00am 22.7 17.8 5.2 32 9.0 SW 20 33 11 18 1011.5 1007.4 0.0
30/10:30am 22.6 17.5 6.0 34 8.7 WSW 22 33 12 18 1011.5 1007.4 0.0
30/10:00am 21.8 17.1 5.3 34 8.5 WSW 19 30 10 16 1011.7 1007.6 0.0

Other Formats:

Comma delimited format used in spreadsheet applications
http://www.bom.gov.au/fwo/IDN60801/IDN60801.95728.axf

JavaScript Object Notation format (JSON) in row-major order
http://www.bom.gov.au/fwo/IDN60801/IDN60801.95728.json